sensor_id;sensor_type;location;lat;lon;timestamp;P1;durP1;ratioP1;P2;durP2;ratioP2
71435;SDS011;59251;51.326;12.370;2022-12-18T00:02:04;51.43;;;18.20;;
71435;SDS011;59251;51.326;12.370;2022-12-18T00:04:29;51.93;;;19.83;;
71435;SDS011;59251;51.326;12.370;2022-12-18T00:06:55;47.55;;;18.77;;
71435;SDS011;59251;51.326;12.370;2022-12-18T00:09:20;46.93;;;18.73;;
71435;SDS011;59251;51.326;12.370;2022-12-18T00:11:46;55.37;;;21.93;;
71435;SDS011;59251;51.326;12.370;2022-12-18T00:14:12;53.97;;;19.48;;
71435;SDS011;59251;51.326;12.370;2022-12-18T00:16:38;57.28;;;20.65;;
71435;SDS011;59251;51.326;12.370;2022-12-18T00:19:04;50.03;;;18.45;;
71435;SDS011;59251;51.326;12.370;2022-12-18T00:21:31;51.40;;;18.77;;
71435;SDS011;59251;51.326;12.370;2022-12-18T00:23:57;47.90;;;18.23;;
71435;SDS011;59251;51.326;12.370;2022-12-18T00:26:25;48.20;;;18.88;;
71435;SDS011;59251;51.326;12.370;2022-12-18T00:28:52;43.72;;;17.27;;
71435;SDS011;59251;51.326;12.370;2022-12-18T00:31:19;46.43;;;17.93;;
71435;SDS011;59251;51.326;12.370;2022-12-18T00:33:47;49.70;;;16.95;;
71435;SDS011;59251;51.326;12.370;2022-12-18T00:36:14;42.63;;;16.33;;
71435;SDS011;59251;51.326;12.370;2022-12-18T00:38:41;51.00;;;19.63;;
71435;SDS011;59251;51.326;12.370;2022-12-18T00:41:07;43.97;;;16.20;;
71435;SDS011;59251;51.326;12.370;2022-12-18T00:43:33;48.13;;;17.20;;
71435;SDS011;59251;51.326;12.370;2022-12-18T00:45:58;45.97;;;18.40;;
71435;SDS011;59251;51.326;12.370;2022-12-18T00:48:24;46.13;;;18.63;;
71435;SDS011;59251;51.326;12.370;2022-12-18T00:50:49;47.23;;;17.27;;
71435;SDS011;59251;51.326;12.370;2022-12-18T00:53:15;44.58;;;18.20;;
71435;SDS011;59251;51.326;12.370;2022-12-18T00:55:41;49.60;;;19.20;;
71435;SDS011;59251;51.326;12.370;2022-12-18T00:58:08;57.60;;;20.58;;
71435;SDS011;59251;51.326;12.370;2022-12-18T01:00:34;57.70;;;20.65;;
71435;SDS011;59251;51.326;12.370;2022-12-18T01:03:00;57.50;;;21.13;;
71435;SDS011;59251;51.326;12.370;2022-12-18T01:05:26;49.80;;;19.23;;
71435;SDS011;59251;51.326;12.370;2022-12-18T01:07:52;59.70;;;18.30;;
71435;SDS011;59251;51.326;12.370;2022-12-18T01:10:17;49.38;;;19.63;;
71435;SDS011;59251;51.326;12.370;2022-12-18T01:12:43;49.90;;;17.75;;
71435;SDS011;59251;51.326;12.370;2022-12-18T01:15:09;47.03;;;17.30;;
71435;SDS011;59251;51.326;12.370;2022-12-18T01:17:36;49.47;;;17.83;;
71435;SDS011;59251;51.326;12.370;2022-12-18T01:20:02;56.17;;;18.27;;
71435;SDS011;59251;51.326;12.370;2022-12-18T01:22:28;50.35;;;18.58;;
71435;SDS011;59251;51.326;12.370;2022-12-18T01:24:53;50.57;;;17.93;;
71435;SDS011;59251;51.326;12.370;2022-12-18T01:27:19;48.80;;;17.67;;
71435;SDS011;59251;51.326;12.370;2022-12-18T01:29:44;46.47;;;16.75;;
71435;SDS011;59251;51.326;12.370;2022-12-18T01:32:10;43.97;;;16.40;;
71435;SDS011;59251;51.326;12.370;2022-12-18T01:34:35;45.97;;;15.17;;
71435;SDS011;59251;51.326;12.370;2022-12-18T01:37:02;42.30;;;16.33;;
71435;SDS011;59251;51.326;12.370;2022-12-18T01:39:29;44.45;;;16.35;;
71435;SDS011;59251;51.326;12.370;2022-12-18T01:41:54;49.83;;;18.00;;
71435;SDS011;59251;51.326;12.370;2022-12-18T01:50:01;54.45;;;17.92;;
71435;SDS011;59251;51.326;12.370;2022-12-18T01:52:31;51.33;;;18.02;;
71435;SDS011;59251;51.326;12.370;2022-12-18T01:54:57;49.35;;;17.85;;
71435;SDS011;59251;51.326;12.370;2022-12-18T01:57:25;54.22;;;18.42;;
71435;SDS011;59251;51.326;12.370;2022-12-18T01:59:52;51.10;;;19.07;;
71435;SDS011;59251;51.326;12.370;2022-12-18T02:02:20;45.63;;;16.80;;
71435;SDS011;59251;51.326;12.370;2022-12-18T02:04:46;38.77;;;16.10;;
71435;SDS011;59251;51.326;12.370;2022-12-18T02:10:11;47.70;;;16.30;;
71435;SDS011;59251;51.326;12.370;2022-12-18T02:18:14;46.10;;;16.42;;
71435;SDS011;59251;51.326;12.370;2022-12-18T02:20:53;35.72;;;14.38;;
71435;SDS011;59251;51.326;12.370;2022-12-18T02:28:53;40.33;;;16.38;;
71435;SDS011;59251;51.326;12.370;2022-12-18T02:31:26;44.22;;;16.80;;
71435;SDS011;59251;51.326;12.370;2022-12-18T02:33:55;38.87;;;15.07;;
71435;SDS011;59251;51.326;12.370;2022-12-18T02:36:23;39.60;;;14.40;;
71435;SDS011;59251;51.326;12.370;2022-12-18T02:38:49;40.45;;;15.60;;
71435;SDS011;59251;51.326;12.370;2022-12-18T02:41:17;34.25;;;14.85;;
71435;SDS011;59251;51.326;12.370;2022-12-18T02:43:47;37.53;;;12.95;;
71435;SDS011;59251;51.326;12.370;2022-12-18T02:51:40;40.47;;;15.87;;
71435;SDS011;59251;51.326;12.370;2022-12-18T02:54:20;37.45;;;13.25;;
71435;SDS011;59251;51.326;12.370;2022-12-18T02:56:49;33.28;;;13.48;;
71435;SDS011;59251;51.326;12.370;2022-12-18T02:59:28;38.73;;;14.27;;
71435;SDS011;59251;51.326;12.370;2022-12-18T03:01:59;37.70;;;14.30;;
71435;SDS011;59251;51.326;12.370;2022-12-18T03:04:53;30.10;;;12.57;;
71435;SDS011;59251;51.326;12.370;2022-12-18T03:07:27;33.83;;;13.52;;
71435;SDS011;59251;51.326;12.370;2022-12-18T03:10:19;30.08;;;12.43;;
71435;SDS011;59251;51.326;12.370;2022-12-18T03:12:59;37.75;;;13.52;;
71435;SDS011;59251;51.326;12.370;2022-12-18T03:15:29;36.83;;;13.68;;
71435;SDS011;59251;51.326;12.370;2022-12-18T03:18:03;34.37;;;13.23;;
71435;SDS011;59251;51.326;12.370;2022-12-18T03:20:32;35.90;;;13.32;;
71435;SDS011;59251;51.326;12.370;2022-12-18T03:23:10;32.90;;;13.35;;
71435;SDS011;59251;51.326;12.370;2022-12-18T03:25:39;35.87;;;13.70;;
71435;SDS011;59251;51.326;12.370;2022-12-18T03:28:08;39.30;;;12.63;;
71435;SDS011;59251;51.326;12.370;2022-12-18T03:30:37;33.03;;;11.52;;
71435;SDS011;59251;51.326;12.370;2022-12-18T03:33:08;32.80;;;12.75;;
71435;SDS011;59251;51.326;12.370;2022-12-18T03:35:41;32.90;;;12.43;;
71435;SDS011;59251;51.326;12.370;2022-12-18T03:38:08;32.75;;;12.65;;
71435;SDS011;59251;51.326;12.370;2022-12-18T03:40:39;33.10;;;12.80;;
71435;SDS011;59251;51.326;12.370;2022-12-18T03:43:08;31.47;;;12.07;;
71435;SDS011;59251;51.326;12.370;2022-12-18T03:45:41;33.35;;;12.27;;
71435;SDS011;59251;51.326;12.370;2022-12-18T03:50:49;29.83;;;11.90;;
71435;SDS011;59251;51.326;12.370;2022-12-18T03:53:26;30.58;;;11.55;;
71435;SDS011;59251;51.326;12.370;2022-12-18T03:56:06;29.75;;;12.52;;
71435;SDS011;59251;51.326;12.370;2022-12-18T03:58:34;31.65;;;13.20;;
71435;SDS011;59251;51.326;12.370;2022-12-18T04:01:02;32.58;;;10.93;;
71435;SDS011;59251;51.326;12.370;2022-12-18T04:03:32;30.50;;;11.65;;
71435;SDS011;59251;51.326;12.370;2022-12-18T04:05:59;29.27;;;11.52;;
71435;SDS011;59251;51.326;12.370;2022-12-18T04:08:26;34.67;;;11.63;;
71435;SDS011;59251;51.326;12.370;2022-12-18T04:10:51;34.28;;;11.82;;
71435;SDS011;59251;51.326;12.370;2022-12-18T04:13:24;31.23;;;11.47;;
71435;SDS011;59251;51.326;12.370;2022-12-18T04:15:53;31.23;;;11.10;;
71435;SDS011;59251;51.326;12.370;2022-12-18T04:18:18;32.57;;;11.03;;
71435;SDS011;59251;51.326;12.370;2022-12-18T04:20:44;33.43;;;12.70;;
71435;SDS011;59251;51.326;12.370;2022-12-18T04:23:09;37.30;;;13.65;;
71435;SDS011;59251;51.326;12.370;2022-12-18T04:25:34;32.70;;;12.53;;
71435;SDS011;59251;51.326;12.370;2022-12-18T04:28:00;30.90;;;10.97;;
71435;SDS011;59251;51.326;12.370;2022-12-18T04:30:25;28.33;;;11.47;;
71435;SDS011;59251;51.326;12.370;2022-12-18T04:32:51;29.90;;;12.60;;
71435;SDS011;59251;51.326;12.370;2022-12-18T04:35:16;30.08;;;11.10;;
71435;SDS011;59251;51.326;12.370;2022-12-18T04:37:42;30.33;;;11.43;;
71435;SDS011;59251;51.326;12.370;2022-12-18T04:40:07;30.10;;;10.40;;
71435;SDS011;59251;51.326;12.370;2022-12-18T04:42:33;33.28;;;12.20;;
71435;SDS011;59251;51.326;12.370;2022-12-18T04:44:58;30.27;;;11.60;;
71435;SDS011;59251;51.326;12.370;2022-12-18T04:47:24;33.17;;;13.37;;
71435;SDS011;59251;51.326;12.370;2022-12-18T04:49:49;31.70;;;11.53;;
71435;SDS011;59251;51.326;12.370;2022-12-18T04:52:14;28.47;;;11.57;;
71435;SDS011;59251;51.326;12.370;2022-12-18T04:54:40;26.60;;;10.67;;
71435;SDS011;59251;51.326;12.370;2022-12-18T04:57:05;28.17;;;10.50;;
71435;SDS011;59251;51.326;12.370;2022-12-18T04:59:31;27.48;;;11.05;;
71435;SDS011;59251;51.326;12.370;2022-12-18T05:01:56;24.95;;;11.10;;
71435;SDS011;59251;51.326;12.370;2022-12-18T05:04:21;28.77;;;10.40;;
71435;SDS011;59251;51.326;12.370;2022-12-18T05:06:47;25.73;;;9.57;;
71435;SDS011;59251;51.326;12.370;2022-12-18T05:09:12;28.43;;;11.00;;
71435;SDS011;59251;51.326;12.370;2022-12-18T05:11:38;24.63;;;8.87;;
71435;SDS011;59251;51.326;12.370;2022-12-18T05:14:03;24.53;;;10.23;;
71435;SDS011;59251;51.326;12.370;2022-12-18T05:16:28;28.83;;;9.25;;
71435;SDS011;59251;51.326;12.370;2022-12-18T05:18:54;22.85;;;9.85;;
71435;SDS011;59251;51.326;12.370;2022-12-18T05:21:19;21.10;;;8.23;;
71435;SDS011;59251;51.326;12.370;2022-12-18T05:23:45;21.63;;;9.27;;
71435;SDS011;59251;51.326;12.370;2022-12-18T05:26:11;19.33;;;7.33;;
71435;SDS011;59251;51.326;12.370;2022-12-18T05:28:41;22.65;;;9.10;;
71435;SDS011;59251;51.326;12.370;2022-12-18T05:31:06;23.43;;;8.33;;
71435;SDS011;59251;51.326;12.370;2022-12-18T05:33:32;23.03;;;8.47;;
71435;SDS011;59251;51.326;12.370;2022-12-18T05:36:00;24.25;;;8.07;;
71435;SDS011;59251;51.326;12.370;2022-12-18T05:38:26;18.45;;;7.22;;
71435;SDS011;59251;51.326;12.370;2022-12-18T05:40:54;25.67;;;8.07;;
71435;SDS011;59251;51.326;12.370;2022-12-18T05:43:20;20.42;;;8.02;;
71435;SDS011;59251;51.326;12.370;2022-12-18T05:45:47;19.27;;;8.13;;
71435;SDS011;59251;51.326;12.370;2022-12-18T05:48:12;20.13;;;7.60;;
71435;SDS011;59251;51.326;12.370;2022-12-18T05:50:39;20.83;;;8.60;;
71435;SDS011;59251;51.326;12.370;2022-12-18T05:53:06;20.55;;;8.32;;
71435;SDS011;59251;51.326;12.370;2022-12-18T05:55:35;18.80;;;7.68;;
71435;SDS011;59251;51.326;12.370;2022-12-18T05:58:02;23.20;;;8.60;;
71435;SDS011;59251;51.326;12.370;2022-12-18T06:00:29;19.75;;;7.45;;
71435;SDS011;59251;51.326;12.370;2022-12-18T06:02:54;23.55;;;8.50;;
71435;SDS011;59251;51.326;12.370;2022-12-18T06:05:20;23.00;;;8.73;;
71435;SDS011;59251;51.326;12.370;2022-12-18T06:07:45;20.63;;;7.87;;
71435;SDS011;59251;51.326;12.370;2022-12-18T06:10:10;17.63;;;7.53;;
71435;SDS011;59251;51.326;12.370;2022-12-18T06:12:36;19.65;;;7.57;;
71435;SDS011;59251;51.326;12.370;2022-12-18T06:15:02;25.77;;;9.60;;
71435;SDS011;59251;51.326;12.370;2022-12-18T06:17:29;22.70;;;8.73;;
71435;SDS011;59251;51.326;12.370;2022-12-18T06:19:55;22.77;;;7.83;;
71435;SDS011;59251;51.326;12.370;2022-12-18T06:22:21;21.52;;;8.15;;
71435;SDS011;59251;51.326;12.370;2022-12-18T06:24:46;20.70;;;7.90;;
71435;SDS011;59251;51.326;12.370;2022-12-18T06:27:12;20.07;;;7.27;;
71435;SDS011;59251;51.326;12.370;2022-12-18T06:29:37;27.25;;;10.10;;
71435;SDS011;59251;51.326;12.370;2022-12-18T06:32:03;26.05;;;9.63;;
71435;SDS011;59251;51.326;12.370;2022-12-18T06:34:28;23.57;;;9.43;;
71435;SDS011;59251;51.326;12.370;2022-12-18T06:36:54;21.97;;;7.90;;
71435;SDS011;59251;51.326;12.370;2022-12-18T06:39:20;21.80;;;8.65;;
71435;SDS011;59251;51.326;12.370;2022-12-18T06:41:45;18.33;;;8.17;;
71435;SDS011;59251;51.326;12.370;2022-12-18T06:44:10;20.10;;;8.87;;
71435;SDS011;59251;51.326;12.370;2022-12-18T06:46:36;26.13;;;9.80;;
71435;SDS011;59251;51.326;12.370;2022-12-18T06:49:02;22.58;;;8.68;;
71435;SDS011;59251;51.326;12.370;2022-12-18T06:51:28;20.23;;;7.33;;
71435;SDS011;59251;51.326;12.370;2022-12-18T06:53:53;22.07;;;8.87;;
71435;SDS011;59251;51.326;12.370;2022-12-18T06:56:19;24.48;;;9.30;;
71435;SDS011;59251;51.326;12.370;2022-12-18T06:58:44;26.67;;;9.93;;
71435;SDS011;59251;51.326;12.370;2022-12-18T07:01:10;22.50;;;9.13;;
71435;SDS011;59251;51.326;12.370;2022-12-18T07:03:37;26.45;;;9.20;;
71435;SDS011;59251;51.326;12.370;2022-12-18T07:06:03;24.67;;;9.80;;
71435;SDS011;59251;51.326;12.370;2022-12-18T07:08:30;24.50;;;8.77;;
71435;SDS011;59251;51.326;12.370;2022-12-18T07:10:56;26.73;;;10.25;;
71435;SDS011;59251;51.326;12.370;2022-12-18T07:13:22;27.50;;;10.25;;
71435;SDS011;59251;51.326;12.370;2022-12-18T07:15:48;23.02;;;9.25;;
71435;SDS011;59251;51.326;12.370;2022-12-18T07:18:13;28.27;;;9.80;;
71435;SDS011;59251;51.326;12.370;2022-12-18T07:20:39;24.70;;;9.43;;
71435;SDS011;59251;51.326;12.370;2022-12-18T07:23:04;26.40;;;11.23;;
71435;SDS011;59251;51.326;12.370;2022-12-18T07:25:33;23.60;;;9.10;;
71435;SDS011;59251;51.326;12.370;2022-12-18T07:28:02;25.42;;;8.70;;
71435;SDS011;59251;51.326;12.370;2022-12-18T07:30:28;29.87;;;10.90;;
71435;SDS011;59251;51.326;12.370;2022-12-18T07:32:53;27.20;;;10.40;;
71435;SDS011;59251;51.326;12.370;2022-12-18T07:35:18;24.70;;;9.38;;
71435;SDS011;59251;51.326;12.370;2022-12-18T07:37:44;27.05;;;10.18;;
71435;SDS011;59251;51.326;12.370;2022-12-18T07:40:09;19.47;;;7.80;;
71435;SDS011;59251;51.326;12.370;2022-12-18T07:42:35;20.08;;;7.57;;
71435;SDS011;59251;51.326;12.370;2022-12-18T07:45:02;26.67;;;10.25;;
71435;SDS011;59251;51.326;12.370;2022-12-18T07:47:28;22.85;;;7.72;;
71435;SDS011;59251;51.326;12.370;2022-12-18T07:49:54;23.53;;;9.47;;
71435;SDS011;59251;51.326;12.370;2022-12-18T07:52:19;22.67;;;9.07;;
71435;SDS011;59251;51.326;12.370;2022-12-18T07:54:45;20.27;;;9.00;;
71435;SDS011;59251;51.326;12.370;2022-12-18T07:57:13;20.38;;;8.38;;
71435;SDS011;59251;51.326;12.370;2022-12-18T07:59:39;24.07;;;8.03;;
71435;SDS011;59251;51.326;12.370;2022-12-18T08:02:04;24.67;;;8.93;;
71435;SDS011;59251;51.326;12.370;2022-12-18T08:04:29;23.23;;;7.90;;
71435;SDS011;59251;51.326;12.370;2022-12-18T08:06:55;16.55;;;6.90;;
71435;SDS011;59251;51.326;12.370;2022-12-18T08:09:20;21.93;;;8.17;;
71435;SDS011;59251;51.326;12.370;2022-12-18T08:11:46;21.53;;;8.23;;
71435;SDS011;59251;51.326;12.370;2022-12-18T08:14:11;20.80;;;8.33;;
71435;SDS011;59251;51.326;12.370;2022-12-18T08:16:36;22.53;;;8.83;;
71435;SDS011;59251;51.326;12.370;2022-12-18T08:19:02;20.00;;;8.37;;
71435;SDS011;59251;51.326;12.370;2022-12-18T08:21:29;21.92;;;8.90;;
71435;SDS011;59251;51.326;12.370;2022-12-18T08:23:56;15.88;;;5.78;;
71435;SDS011;59251;51.326;12.370;2022-12-18T08:26:23;24.37;;;8.73;;
71435;SDS011;59251;51.326;12.370;2022-12-18T08:28:49;20.75;;;8.05;;
71435;SDS011;59251;51.326;12.370;2022-12-18T08:31:16;18.92;;;7.10;;
71435;SDS011;59251;51.326;12.370;2022-12-18T08:33:42;20.50;;;7.60;;
71435;SDS011;59251;51.326;12.370;2022-12-18T08:36:08;16.00;;;6.63;;
71435;SDS011;59251;51.326;12.370;2022-12-18T08:38:34;17.37;;;6.50;;
71435;SDS011;59251;51.326;12.370;2022-12-18T08:43:27;18.63;;;6.70;;
71435;SDS011;59251;51.326;12.370;2022-12-18T08:46:11;17.07;;;6.40;;
71435;SDS011;59251;51.326;12.370;2022-12-18T08:48:37;16.42;;;6.15;;
71435;SDS011;59251;51.326;12.370;2022-12-18T08:51:02;18.33;;;6.50;;
71435;SDS011;59251;51.326;12.370;2022-12-18T08:53:28;17.63;;;6.33;;
71435;SDS011;59251;51.326;12.370;2022-12-18T08:55:53;20.15;;;6.55;;
71435;SDS011;59251;51.326;12.370;2022-12-18T08:58:21;16.50;;;6.70;;
71435;SDS011;59251;51.326;12.370;2022-12-18T09:00:46;18.38;;;7.72;;
71435;SDS011;59251;51.326;12.370;2022-12-18T09:03:12;17.38;;;6.88;;
71435;SDS011;59251;51.326;12.370;2022-12-18T09:05:39;18.10;;;6.80;;
71435;SDS011;59251;51.326;12.370;2022-12-18T09:08:05;20.08;;;7.32;;
71435;SDS011;59251;51.326;12.370;2022-12-18T09:10:30;13.57;;;5.43;;
71435;SDS011;59251;51.326;12.370;2022-12-18T09:12:56;16.70;;;6.25;;
71435;SDS011;59251;51.326;12.370;2022-12-18T09:15:21;17.63;;;6.40;;
71435;SDS011;59251;51.326;12.370;2022-12-18T09:17:47;14.33;;;6.47;;
71435;SDS011;59251;51.326;12.370;2022-12-18T09:20:14;17.05;;;6.55;;
71435;SDS011;59251;51.326;12.370;2022-12-18T09:22:40;14.68;;;5.88;;
71435;SDS011;59251;51.326;12.370;2022-12-18T09:25:06;13.40;;;6.00;;
71435;SDS011;59251;51.326;12.370;2022-12-18T09:27:34;13.85;;;6.70;;
71435;SDS011;59251;51.326;12.370;2022-12-18T09:30:00;17.23;;;6.28;;
71435;SDS011;59251;51.326;12.370;2022-12-18T09:32:25;15.77;;;5.63;;
71435;SDS011;59251;51.326;12.370;2022-12-18T09:34:51;13.73;;;5.50;;
71435;SDS011;59251;51.326;12.370;2022-12-18T09:37:16;16.63;;;6.30;;
71435;SDS011;59251;51.326;12.370;2022-12-18T09:39:42;15.70;;;5.20;;
71435;SDS011;59251;51.326;12.370;2022-12-18T09:42:09;15.50;;;5.57;;
71435;SDS011;59251;51.326;12.370;2022-12-18T09:44:50;14.38;;;5.35;;
71435;SDS011;59251;51.326;12.370;2022-12-18T09:47:18;15.63;;;5.78;;
71435;SDS011;59251;51.326;12.370;2022-12-18T09:49:49;12.63;;;4.93;;
71435;SDS011;59251;51.326;12.370;2022-12-18T09:54:56;12.73;;;4.00;;
71435;SDS011;59251;51.326;12.370;2022-12-18T09:57:29;12.27;;;4.70;;
71435;SDS011;59251;51.326;12.370;2022-12-18T10:00:09;12.77;;;4.33;;
71435;SDS011;59251;51.326;12.370;2022-12-18T10:02:52;11.70;;;4.15;;
71435;SDS011;59251;51.326;12.370;2022-12-18T10:05:29;10.68;;;4.68;;
71435;SDS011;59251;51.326;12.370;2022-12-18T10:10:51;12.23;;;5.00;;
71435;SDS011;59251;51.326;12.370;2022-12-18T10:13:28;13.68;;;4.63;;
71435;SDS011;59251;51.326;12.370;2022-12-18T10:24:33;10.20;;;3.50;;
71435;SDS011;59251;51.326;12.370;2022-12-18T10:29:38;9.73;;;3.85;;
71435;SDS011;59251;51.326;12.370;2022-12-18T10:32:04;10.43;;;3.73;;
71435;SDS011;59251;51.326;12.370;2022-12-18T10:34:29;13.33;;;4.23;;
71435;SDS011;59251;51.326;12.370;2022-12-18T10:36:54;24.33;;;11.67;;
71435;SDS011;59251;51.326;12.370;2022-12-18T10:39:21;25.67;;;10.38;;
71435;SDS011;59251;51.326;12.370;2022-12-18T10:41:48;13.10;;;4.83;;
71435;SDS011;59251;51.326;12.370;2022-12-18T10:44:21;13.90;;;4.30;;
71435;SDS011;59251;51.326;12.370;2022-12-18T10:46:52;12.37;;;4.60;;
71435;SDS011;59251;51.326;12.370;2022-12-18T10:49:23;14.02;;;4.40;;
71435;SDS011;59251;51.326;12.370;2022-12-18T10:51:51;11.85;;;4.50;;
71435;SDS011;59251;51.326;12.370;2022-12-18T10:54:45;13.63;;;4.70;;
71435;SDS011;59251;51.326;12.370;2022-12-18T10:57:16;10.68;;;4.70;;
71435;SDS011;59251;51.326;12.370;2022-12-18T10:59:55;11.50;;;4.83;;
71435;SDS011;59251;51.326;12.370;2022-12-18T11:02:26;9.48;;;4.28;;
71435;SDS011;59251;51.326;12.370;2022-12-18T11:05:02;11.80;;;5.13;;
71435;SDS011;59251;51.326;12.370;2022-12-18T11:07:48;12.75;;;4.80;;
71435;SDS011;59251;51.326;12.370;2022-12-18T11:10:18;12.53;;;4.97;;
71435;SDS011;59251;51.326;12.370;2022-12-18T11:12:44;15.70;;;5.65;;
71435;SDS011;59251;51.326;12.370;2022-12-18T11:15:14;18.50;;;6.13;;
71435;SDS011;59251;51.326;12.370;2022-12-18T11:17:51;16.27;;;6.40;;
71435;SDS011;59251;51.326;12.370;2022-12-18T11:22:59;17.95;;;7.80;;
71435;SDS011;59251;51.326;12.370;2022-12-18T11:25:27;16.45;;;7.10;;
71435;SDS011;59251;51.326;12.370;2022-12-18T11:27:56;15.20;;;6.83;;
71435;SDS011;59251;51.326;12.370;2022-12-18T11:30:33;16.08;;;6.93;;
71435;SDS011;59251;51.326;12.370;2022-12-18T11:33:09;12.87;;;5.50;;
71435;SDS011;59251;51.326;12.370;2022-12-18T11:35:57;13.77;;;5.35;;
71435;SDS011;59251;51.326;12.370;2022-12-18T11:38:29;12.70;;;4.97;;
71435;SDS011;59251;51.326;12.370;2022-12-18T11:44:26;12.52;;;4.47;;
71435;SDS011;59251;51.326;12.370;2022-12-18T11:47:03;13.80;;;4.83;;
71435;SDS011;59251;51.326;12.370;2022-12-18T11:49:44;12.93;;;5.78;;
71435;SDS011;59251;51.326;12.370;2022-12-18T11:52:35;13.32;;;4.75;;
71435;SDS011;59251;51.326;12.370;2022-12-18T12:00:19;14.38;;;5.47;;
71435;SDS011;59251;51.326;12.370;2022-12-18T12:02:54;15.32;;;5.20;;
71435;SDS011;59251;51.326;12.370;2022-12-18T12:11:58;12.50;;;4.50;;
71435;SDS011;59251;51.326;12.370;2022-12-18T12:14:53;14.88;;;5.43;;
71435;SDS011;59251;51.326;12.370;2022-12-18T12:19:48;15.30;;;6.18;;
71435;SDS011;59251;51.326;12.370;2022-12-18T12:24:57;12.60;;;5.33;;
71435;SDS011;59251;51.326;12.370;2022-12-18T12:30:20;14.05;;;5.22;;
71435;SDS011;59251;51.326;12.370;2022-12-18T12:38:34;14.33;;;6.30;;
71435;SDS011;59251;51.326;12.370;2022-12-18T12:41:06;17.88;;;7.40;;
71435;SDS011;59251;51.326;12.370;2022-12-18T12:43:55;18.58;;;6.80;;
71435;SDS011;59251;51.326;12.370;2022-12-18T12:46:22;19.08;;;7.50;;
71435;SDS011;59251;51.326;12.370;2022-12-18T12:48:55;19.30;;;7.03;;
71435;SDS011;59251;51.326;12.370;2022-12-18T12:53:53;20.27;;;8.13;;
71435;SDS011;59251;51.326;12.370;2022-12-18T12:56:21;18.02;;;7.03;;
71435;SDS011;59251;51.326;12.370;2022-12-18T12:59:04;20.23;;;7.03;;
71435;SDS011;59251;51.326;12.370;2022-12-18T13:01:39;16.08;;;6.50;;
71435;SDS011;59251;51.326;12.370;2022-12-18T13:04:12;18.40;;;6.60;;
71435;SDS011;59251;51.326;12.370;2022-12-18T13:09:36;19.95;;;6.38;;
71435;SDS011;59251;51.326;12.370;2022-12-18T13:12:36;17.15;;;6.88;;
71435;SDS011;59251;51.326;12.370;2022-12-18T13:15:21;17.85;;;7.60;;
71435;SDS011;59251;51.326;12.370;2022-12-18T13:20:43;17.83;;;7.78;;
71435;SDS011;59251;51.326;12.370;2022-12-18T13:25:47;16.33;;;6.90;;
71435;SDS011;59251;51.326;12.370;2022-12-18T13:28:14;18.20;;;6.97;;
71435;SDS011;59251;51.326;12.370;2022-12-18T13:30:45;16.83;;;7.00;;
71435;SDS011;59251;51.326;12.370;2022-12-18T13:38:22;18.07;;;6.70;;
71435;SDS011;59251;51.326;12.370;2022-12-18T13:43:52;16.98;;;7.18;;
71435;SDS011;59251;51.326;12.370;2022-12-18T13:46:47;19.05;;;7.40;;
71435;SDS011;59251;51.326;12.370;2022-12-18T13:51:41;18.60;;;7.20;;
71435;SDS011;59251;51.326;12.370;2022-12-18T13:56:59;17.73;;;6.67;;
71435;SDS011;59251;51.326;12.370;2022-12-18T13:59:25;15.90;;;6.28;;
71435;SDS011;59251;51.326;12.370;2022-12-18T14:02:22;19.42;;;7.18;;
71435;SDS011;59251;51.326;12.370;2022-12-18T14:04:48;17.05;;;7.40;;
71435;SDS011;59251;51.326;12.370;2022-12-18T14:07:16;19.80;;;6.83;;
71435;SDS011;59251;51.326;12.370;2022-12-18T14:09:46;19.83;;;7.45;;
71435;SDS011;59251;51.326;12.370;2022-12-18T14:15:09;22.33;;;8.93;;
71435;SDS011;59251;51.326;12.370;2022-12-18T14:17:47;23.33;;;8.63;;
71435;SDS011;59251;51.326;12.370;2022-12-18T14:20:15;22.90;;;9.03;;
71435;SDS011;59251;51.326;12.370;2022-12-18T14:22:43;24.67;;;9.77;;
71435;SDS011;59251;51.326;12.370;2022-12-18T14:25:15;26.45;;;10.73;;
71435;SDS011;59251;51.326;12.370;2022-12-18T14:27:47;20.50;;;9.37;;
71435;SDS011;59251;51.326;12.370;2022-12-18T14:30:22;26.70;;;9.40;;
71435;SDS011;59251;51.326;12.370;2022-12-18T14:33:01;37.08;;;14.57;;
71435;SDS011;59251;51.326;12.370;2022-12-18T14:35:30;26.42;;;10.13;;
71435;SDS011;59251;51.326;12.370;2022-12-18T14:40:41;28.15;;;10.32;;
71435;SDS011;59251;51.326;12.370;2022-12-18T14:43:10;27.23;;;10.45;;
71435;SDS011;59251;51.326;12.370;2022-12-18T14:45:37;25.83;;;10.70;;
71435;SDS011;59251;51.326;12.370;2022-12-18T14:48:48;28.02;;;11.27;;
71435;SDS011;59251;51.326;12.370;2022-12-18T14:51:17;24.00;;;10.07;;
71435;SDS011;59251;51.326;12.370;2022-12-18T14:53:48;25.33;;;10.88;;
71435;SDS011;59251;51.326;12.370;2022-12-18T14:56:25;29.65;;;11.85;;
71435;SDS011;59251;51.326;12.370;2022-12-18T14:58:53;33.72;;;12.02;;
71435;SDS011;59251;51.326;12.370;2022-12-18T15:01:23;28.77;;;12.07;;
71435;SDS011;59251;51.326;12.370;2022-12-18T15:04:53;32.38;;;12.30;;
71435;SDS011;59251;51.326;12.370;2022-12-18T15:07:18;33.00;;;12.00;;
71435;SDS011;59251;51.326;12.370;2022-12-18T15:17:58;33.70;;;12.68;;
71435;SDS011;59251;51.326;12.370;2022-12-18T15:20:25;25.63;;;11.80;;
71435;SDS011;59251;51.326;12.370;2022-12-18T15:22:50;33.22;;;13.23;;
71435;SDS011;59251;51.326;12.370;2022-12-18T15:25:32;29.47;;;11.90;;
71435;SDS011;59251;51.326;12.370;2022-12-18T15:28:01;31.70;;;12.85;;
71435;SDS011;59251;51.326;12.370;2022-12-18T15:30:27;31.27;;;12.20;;
71435;SDS011;59251;51.326;12.370;2022-12-18T15:32:55;33.70;;;11.90;;
71435;SDS011;59251;51.326;12.370;2022-12-18T15:35:41;38.13;;;13.27;;
71435;SDS011;59251;51.326;12.370;2022-12-18T15:38:07;31.07;;;12.77;;
71435;SDS011;59251;51.326;12.370;2022-12-18T15:40:32;32.43;;;12.53;;
71435;SDS011;59251;51.326;12.370;2022-12-18T15:42:58;29.63;;;12.30;;
71435;SDS011;59251;51.326;12.370;2022-12-18T15:45:42;30.23;;;12.20;;
71435;SDS011;59251;51.326;12.370;2022-12-18T15:48:26;35.63;;;13.30;;
71435;SDS011;59251;51.326;12.370;2022-12-18T15:50:52;35.03;;;12.40;;
71435;SDS011;59251;51.326;12.370;2022-12-18T15:53:21;34.50;;;13.55;;
71435;SDS011;59251;51.326;12.370;2022-12-18T15:55:47;29.57;;;11.87;;
71435;SDS011;59251;51.326;12.370;2022-12-18T15:58:31;30.98;;;13.20;;
71435;SDS011;59251;51.326;12.370;2022-12-18T16:00:58;32.25;;;11.77;;
71435;SDS011;59251;51.326;12.370;2022-12-18T16:03:24;32.38;;;12.43;;
71435;SDS011;59251;51.326;12.370;2022-12-18T16:05:49;30.17;;;12.33;;
71435;SDS011;59251;51.326;12.370;2022-12-18T16:08:15;29.23;;;11.60;;
71435;SDS011;59251;51.326;12.370;2022-12-18T16:10:40;30.70;;;13.40;;
71435;SDS011;59251;51.326;12.370;2022-12-18T16:13:08;36.70;;;13.73;;
71435;SDS011;59251;51.326;12.370;2022-12-18T16:15:36;30.98;;;12.90;;
71435;SDS011;59251;51.326;12.370;2022-12-18T16:18:02;31.10;;;12.43;;
71435;SDS011;59251;51.326;12.370;2022-12-18T16:20:27;32.10;;;12.57;;
71435;SDS011;59251;51.326;12.370;2022-12-18T16:22:55;32.60;;;12.63;;
71435;SDS011;59251;51.326;12.370;2022-12-18T16:25:22;32.63;;;12.60;;